sensor_id;sensor_type;location;lat;lon;timestamp;pressure;altitude;pressure_sealevel;temperature;humidity
73566;BME280;61846;52.970;-3.168;2022-09-21T00:00:16;101708.56;;;16.63;40.13
73566;BME280;61846;52.970;-3.168;2022-09-21T00:02:41;101710.02;;;16.27;40.30
73566;BME280;61846;52.970;-3.168;2022-09-21T00:05:07;101713.77;;;16.05;40.68
73566;BME280;61846;52.970;-3.168;2022-09-21T00:07:32;101712.91;;;15.51;41.58
73566;BME280;61846;52.970;-3.168;2022-09-21T00:09:58;101709.97;;;16.05;40.77
73566;BME280;61846;52.970;-3.168;2022-09-21T00:12:23;101707.60;;;16.13;40.84
73566;BME280;61846;52.970;-3.168;2022-09-21T00:14:48;101709.02;;;15.87;41.10
73566;BME280;61846;52.970;-3.168;2022-09-21T00:17:14;101704.85;;;15.77;41.42
73566;BME280;61846;52.970;-3.168;2022-09-21T00:19:39;101702.44;;;15.51;41.56
73566;BME280;61846;52.970;-3.168;2022-09-21T00:22:05;101700.66;;;15.82;40.94
73566;BME280;61846;52.970;-3.168;2022-09-21T00:24:30;101697.50;;;15.64;41.31
73566;BME280;61846;52.970;-3.168;2022-09-21T00:26:56;101697.71;;;15.30;41.66
73566;BME280;61846;52.970;-3.168;2022-09-21T00:29:21;101696.23;;;15.32;41.69
73566;BME280;61846;52.970;-3.168;2022-09-21T00:31:47;101691.80;;;15.36;41.92
73566;BME280;61846;52.970;-3.168;2022-09-21T00:34:13;101693.01;;;15.27;42.26
73566;BME280;61846;52.970;-3.168;2022-09-21T00:36:38;101691.77;;;15.00;43.01
73566;BME280;61846;52.970;-3.168;2022-09-21T00:39:04;101691.97;;;14.71;43.05
73566;BME280;61846;52.970;-3.168;2022-09-21T00:41:31;101691.97;;;14.73;43.02
73566;BME280;61846;52.970;-3.168;2022-09-21T00:46:25;101692.12;;;15.70;41.12
73566;BME280;61846;52.970;-3.168;2022-09-21T00:48:45;101686.70;;;15.03;41.48
73566;BME280;61846;52.970;-3.168;2022-09-21T00:51:11;101684.75;;;15.35;41.70
73566;BME280;61846;52.970;-3.168;2022-09-21T00:53:36;101683.52;;;14.98;42.31
73566;BME280;61846;52.970;-3.168;2022-09-21T00:56:02;101683.49;;;15.08;41.82
73566;BME280;61846;52.970;-3.168;2022-09-21T00:58:29;101680.99;;;14.75;42.23
73566;BME280;61846;52.970;-3.168;2022-09-21T01:00:53;101677.60;;;14.83;42.44
73566;BME280;61846;52.970;-3.168;2022-09-21T01:03:18;101673.76;;;15.06;42.03
73566;BME280;61846;52.970;-3.168;2022-09-21T01:05:44;101673.49;;;15.15;41.81
73566;BME280;61846;52.970;-3.168;2022-09-21T01:08:10;101675.69;;;13.90;43.45
73566;BME280;61846;52.970;-3.168;2022-09-21T01:10:43;101669.51;;;15.16;41.89
73566;BME280;61846;52.970;-3.168;2022-09-21T01:13:09;101671.83;;;14.95;42.13
73566;BME280;61846;52.970;-3.168;2022-09-21T01:15:35;101676.46;;;14.60;42.66
73566;BME280;61846;52.970;-3.168;2022-09-21T01:17:56;101678.39;;;14.71;42.77
73566;BME280;61846;52.970;-3.168;2022-09-21T01:22:53;101674.93;;;14.84;42.11
73566;BME280;61846;52.970;-3.168;2022-09-21T01:25:14;101674.99;;;15.34;41.62
73566;BME280;61846;52.970;-3.168;2022-09-21T01:27:45;101672.52;;;14.68;42.45
73566;BME280;61846;52.970;-3.168;2022-09-21T01:30:01;101668.05;;;15.22;41.94
73566;BME280;61846;52.970;-3.168;2022-09-21T01:32:27;101667.05;;;14.68;42.85
73566;BME280;61846;52.970;-3.168;2022-09-21T01:34:53;101671.28;;;14.60;42.73
73566;BME280;61846;52.970;-3.168;2022-09-21T01:37:19;101671.91;;;14.61;42.62
73566;BME280;61846;52.970;-3.168;2022-09-21T01:39:44;101671.59;;;14.61;42.49
73566;BME280;61846;52.970;-3.168;2022-09-21T01:42:06;101671.83;;;14.83;42.20
73566;BME280;61846;52.970;-3.168;2022-09-21T01:44:34;101672.55;;;15.11;41.78
73566;BME280;61846;52.970;-3.168;2022-09-21T01:46:59;101671.83;;;15.29;41.11
73566;BME280;61846;52.970;-3.168;2022-09-21T01:49:26;101666.87;;;14.69;42.09
73566;BME280;61846;52.970;-3.168;2022-09-21T01:51:52;101660.51;;;15.09;41.19
73566;BME280;61846;52.970;-3.168;2022-09-21T01:54:18;101660.48;;;14.79;41.79
73566;BME280;61846;52.970;-3.168;2022-09-21T01:56:40;101662.30;;;14.12;43.27
73566;BME280;61846;52.970;-3.168;2022-09-21T01:59:09;101657.30;;;14.26;42.76
73566;BME280;61846;52.970;-3.168;2022-09-21T02:01:31;101654.15;;;13.96;42.93
73566;BME280;61846;52.970;-3.168;2022-09-21T02:03:57;101652.03;;;14.40;43.25
73566;BME280;61846;52.970;-3.168;2022-09-21T02:06:20;101655.08;;;13.07;44.47
73566;BME280;61846;52.970;-3.168;2022-09-21T02:08:46;101654.24;;;13.91;43.24
73566;BME280;61846;52.970;-3.168;2022-09-21T02:11:12;101653.70;;;14.21;42.49
73566;BME280;61846;52.970;-3.168;2022-09-21T02:13:39;101654.23;;;14.09;43.12
73566;BME280;61846;52.970;-3.168;2022-09-21T02:16:14;101653.06;;;14.34;42.67
73566;BME280;61846;52.970;-3.168;2022-09-21T02:18:36;101651.26;;;14.30;42.38
73566;BME280;61846;52.970;-3.168;2022-09-21T02:20:56;101657.50;;;14.51;42.60
73566;BME280;61846;52.970;-3.168;2022-09-21T02:23:24;101660.96;;;14.14;42.77
73566;BME280;61846;52.970;-3.168;2022-09-21T02:25:49;101659.12;;;13.69;43.57
73566;BME280;61846;52.970;-3.168;2022-09-21T02:28:18;101657.96;;;13.17;44.42
73566;BME280;61846;52.970;-3.168;2022-09-21T02:30:36;101655.48;;;13.65;43.73
73566;BME280;61846;52.970;-3.168;2022-09-21T02:33:05;101658.32;;;13.45;44.20
73566;BME280;61846;52.970;-3.168;2022-09-21T02:35:33;101661.47;;;12.80;45.13
73566;BME280;61846;52.970;-3.168;2022-09-21T02:37:56;101657.43;;;13.98;43.55
73566;BME280;61846;52.970;-3.168;2022-09-21T02:40:22;101654.12;;;13.67;43.67
73566;BME280;61846;52.970;-3.168;2022-09-21T02:42:44;101650.36;;;13.82;43.41
73566;BME280;61846;52.970;-3.168;2022-09-21T02:45:12;101652.47;;;14.07;43.12
73566;BME280;61846;52.970;-3.168;2022-09-21T02:47:38;101649.72;;;13.99;43.52
73566;BME280;61846;52.970;-3.168;2022-09-21T02:50:03;101645.24;;;14.21;42.67
73566;BME280;61846;52.970;-3.168;2022-09-21T02:52:25;101647.67;;;13.65;43.87
73566;BME280;61846;52.970;-3.168;2022-09-21T02:54:51;101644.06;;;14.10;43.28
73566;BME280;61846;52.970;-3.168;2022-09-21T02:57:18;101642.86;;;14.13;42.65
73566;BME280;61846;52.970;-3.168;2022-09-21T02:59:41;101640.14;;;13.90;42.82
73566;BME280;61846;52.970;-3.168;2022-09-21T03:02:09;101636.96;;;14.09;42.67
73566;BME280;61846;52.970;-3.168;2022-09-21T03:04:32;101635.00;;;13.62;43.17
73566;BME280;61846;52.970;-3.168;2022-09-21T03:06:58;101636.85;;;12.72;44.60
73566;BME280;61846;52.970;-3.168;2022-09-21T03:09:23;101634.20;;;13.35;43.91
73566;BME280;61846;52.970;-3.168;2022-09-21T03:11:48;101634.85;;;13.28;44.18
73566;BME280;61846;52.970;-3.168;2022-09-21T03:14:13;101634.62;;;13.28;44.06
73566;BME280;61846;52.970;-3.168;2022-09-21T03:16:39;101636.82;;;13.36;44.11
73566;BME280;61846;52.970;-3.168;2022-09-21T03:19:05;101631.92;;;13.45;43.75
73566;BME280;61846;52.970;-3.168;2022-09-21T03:21:30;101631.13;;;13.88;43.07
73566;BME280;61846;52.970;-3.168;2022-09-21T03:23:56;101636.59;;;13.44;43.74
73566;BME280;61846;52.970;-3.168;2022-09-21T03:26:21;101638.56;;;13.01;44.68
73566;BME280;61846;52.970;-3.168;2022-09-21T03:28:47;101636.58;;;13.59;43.63
73566;BME280;61846;52.970;-3.168;2022-09-21T03:31:12;101634.51;;;13.80;43.09
73566;BME280;61846;52.970;-3.168;2022-09-21T03:33:37;101635.56;;;13.23;43.90
73566;BME280;61846;52.970;-3.168;2022-09-21T03:36:03;101631.46;;;14.04;42.70
73566;BME280;61846;52.970;-3.168;2022-09-21T03:38:28;101630.62;;;13.89;42.65
73566;BME280;61846;52.970;-3.168;2022-09-21T03:40:54;101626.07;;;13.66;43.40
73566;BME280;61846;52.970;-3.168;2022-09-21T03:43:19;101622.63;;;14.08;42.57
73566;BME280;61846;52.970;-3.168;2022-09-21T03:45:45;101623.74;;;13.73;42.75
73566;BME280;61846;52.970;-3.168;2022-09-21T03:48:10;101624.05;;;13.71;42.86
73566;BME280;61846;52.970;-3.168;2022-09-21T03:50:36;101621.03;;;13.89;42.62
73566;BME280;61846;52.970;-3.168;2022-09-21T03:53:01;101618.65;;;13.90;42.91
73566;BME280;61846;52.970;-3.168;2022-09-21T03:55:27;101616.13;;;13.48;43.23
73566;BME280;61846;52.970;-3.168;2022-09-21T03:57:52;101621.16;;;12.71;44.67
73566;BME280;61846;52.970;-3.168;2022-09-21T04:00:18;101620.91;;;12.72;44.62
73566;BME280;61846;52.970;-3.168;2022-09-21T04:02:43;101619.97;;;13.46;43.83
73566;BME280;61846;52.970;-3.168;2022-09-21T04:05:11;101622.08;;;13.17;44.32
73566;BME280;61846;52.970;-3.168;2022-09-21T04:07:35;101621.11;;;13.13;44.03
73566;BME280;61846;52.970;-3.168;2022-09-21T04:10:00;101617.69;;;12.70;44.60
73566;BME280;61846;52.970;-3.168;2022-09-21T04:12:25;101616.80;;;13.09;44.63
73566;BME280;61846;52.970;-3.168;2022-09-21T04:14:51;101617.01;;;12.92;44.35
73566;BME280;61846;52.970;-3.168;2022-09-21T04:17:17;101617.41;;;12.87;44.55
73566;BME280;61846;52.970;-3.168;2022-09-21T04:19:42;101614.37;;;13.40;44.02
73566;BME280;61846;52.970;-3.168;2022-09-21T04:22:07;101612.94;;;13.53;43.50
73566;BME280;61846;52.970;-3.168;2022-09-21T04:24:33;101615.61;;;12.47;45.02
73566;BME280;61846;52.970;-3.168;2022-09-21T04:26:58;101614.58;;;12.82;44.27
73566;BME280;61846;52.970;-3.168;2022-09-21T04:29:24;101613.89;;;12.65;44.42
73566;BME280;61846;52.970;-3.168;2022-09-21T04:31:50;101610.98;;;13.00;44.32
73566;BME280;61846;52.970;-3.168;2022-09-21T04:34:15;101611.18;;;13.02;44.10
73566;BME280;61846;52.970;-3.168;2022-09-21T04:36:41;101611.49;;;12.96;44.29
73566;BME280;61846;52.970;-3.168;2022-09-21T04:39:06;101610.46;;;13.18;44.04
73566;BME280;61846;52.970;-3.168;2022-09-21T04:41:32;101612.36;;;13.40;43.63
73566;BME280;61846;52.970;-3.168;2022-09-21T04:43:57;101612.08;;;13.14;43.94
73566;BME280;61846;52.970;-3.168;2022-09-21T04:46:23;101605.05;;;13.52;42.86
73566;BME280;61846;52.970;-3.168;2022-09-21T04:48:49;101605.52;;;13.04;43.85
73566;BME280;61846;52.970;-3.168;2022-09-21T04:51:15;101608.47;;;13.00;43.95
73566;BME280;61846;52.970;-3.168;2022-09-21T04:53:41;101610.63;;;12.89;43.44
73566;BME280;61846;52.970;-3.168;2022-09-21T04:56:07;101607.84;;;12.96;43.88
73566;BME280;61846;52.970;-3.168;2022-09-21T04:58:31;101609.27;;;12.71;44.35
73566;BME280;61846;52.970;-3.168;2022-09-21T05:00:57;101605.24;;;12.84;44.02
73566;BME280;61846;52.970;-3.168;2022-09-21T05:03:23;101606.49;;;12.55;44.36
73566;BME280;61846;52.970;-3.168;2022-09-21T05:05:48;101605.73;;;12.13;44.94
73566;BME280;61846;52.970;-3.168;2022-09-21T05:08:13;101604.35;;;12.31;44.75
73566;BME280;61846;52.970;-3.168;2022-09-21T05:10:39;101598.73;;;12.32;44.99
73566;BME280;61846;52.970;-3.168;2022-09-21T05:13:04;101596.32;;;12.00;45.65
73566;BME280;61846;52.970;-3.168;2022-09-21T05:15:30;101593.05;;;12.24;45.35
73566;BME280;61846;52.970;-3.168;2022-09-21T05:17:55;101590.52;;;12.69;44.77
73566;BME280;61846;52.970;-3.168;2022-09-21T05:20:20;101589.79;;;12.95;43.85
73566;BME280;61846;52.970;-3.168;2022-09-21T05:22:46;101593.77;;;12.84;44.06
73566;BME280;61846;52.970;-3.168;2022-09-21T05:25:11;101592.85;;;12.91;43.70
73566;BME280;61846;52.970;-3.168;2022-09-21T05:27:37;101595.26;;;12.48;44.41
73566;BME280;61846;52.970;-3.168;2022-09-21T05:30:03;101590.69;;;12.58;44.04
73566;BME280;61846;52.970;-3.168;2022-09-21T05:32:36;101591.63;;;12.00;44.68
73566;BME280;61846;52.970;-3.168;2022-09-21T05:34:59;101592.30;;;12.77;44.17
73566;BME280;61846;52.970;-3.168;2022-09-21T05:37:35;101590.57;;;12.63;43.92
73566;BME280;61846;52.970;-3.168;2022-09-21T05:39:45;101589.49;;;12.53;44.37
73566;BME280;61846;52.970;-3.168;2022-09-21T05:42:11;101586.98;;;13.30;42.70
73566;BME280;61846;52.970;-3.168;2022-09-21T05:44:36;101590.82;;;12.76;43.30
73566;BME280;61846;52.970;-3.168;2022-09-21T05:47:05;101595.59;;;12.74;43.45
73566;BME280;61846;52.970;-3.168;2022-09-21T05:49:36;101593.22;;;12.44;43.91
73566;BME280;61846;52.970;-3.168;2022-09-21T05:51:59;101592.65;;;13.27;42.64
73566;BME280;61846;52.970;-3.168;2022-09-21T05:54:22;101593.43;;;13.12;43.26
73566;BME280;61846;52.970;-3.168;2022-09-21T05:56:49;101598.32;;;12.36;43.90
73566;BME280;61846;52.970;-3.168;2022-09-21T05:59:24;101598.51;;;12.90;43.19
73566;BME280;61846;52.970;-3.168;2022-09-21T06:01:45;101598.70;;;12.62;43.30
73566;BME280;61846;52.970;-3.168;2022-09-21T06:04:01;101600.04;;;12.47;43.58
73566;BME280;61846;52.970;-3.168;2022-09-21T06:06:25;101602.73;;;13.28;42.97
73566;BME280;61846;52.970;-3.168;2022-09-21T06:08:51;101604.39;;;12.77;43.47
73566;BME280;61846;52.970;-3.168;2022-09-21T06:11:17;101609.90;;;12.66;43.43
73566;BME280;61846;52.970;-3.168;2022-09-21T06:13:42;101606.92;;;12.36;44.34
73566;BME280;61846;52.970;-3.168;2022-09-21T06:16:07;101608.72;;;12.35;44.87
73566;BME280;61846;52.970;-3.168;2022-09-21T06:18:36;101609.86;;;12.20;45.38
73566;BME280;61846;52.970;-3.168;2022-09-21T06:20:58;101611.63;;;12.79;44.85
73566;BME280;61846;52.970;-3.168;2022-09-21T06:23:23;101610.74;;;12.61;45.16
73566;BME280;61846;52.970;-3.168;2022-09-21T06:25:50;101608.35;;;13.23;43.63
73566;BME280;61846;52.970;-3.168;2022-09-21T06:28:14;101608.01;;;13.12;44.22
73566;BME280;61846;52.970;-3.168;2022-09-21T06:30:40;101610.39;;;12.43;44.80
73566;BME280;61846;52.970;-3.168;2022-09-21T06:33:06;101608.93;;;13.00;44.14
73566;BME280;61846;52.970;-3.168;2022-09-21T06:35:33;101607.08;;;13.05;44.16
73566;BME280;61846;52.970;-3.168;2022-09-21T06:37:57;101605.61;;;13.26;44.10
73566;BME280;61846;52.970;-3.168;2022-09-21T06:40:23;101603.69;;;13.69;43.36
73566;BME280;61846;52.970;-3.168;2022-09-21T06:42:48;101605.58;;;13.73;43.80
73566;BME280;61846;52.970;-3.168;2022-09-21T06:45:14;101605.12;;;13.95;43.32
73566;BME280;61846;52.970;-3.168;2022-09-21T06:47:39;101607.10;;;13.57;43.54
73566;BME280;61846;52.970;-3.168;2022-09-21T06:50:05;101609.05;;;13.29;43.32
73566;BME280;61846;52.970;-3.168;2022-09-21T06:52:30;101610.74;;;14.04;42.99
73566;BME280;61846;52.970;-3.168;2022-09-21T06:54:55;101610.83;;;13.70;42.92
73566;BME280;61846;52.970;-3.168;2022-09-21T06:57:21;101614.57;;;13.53;43.58
73566;BME280;61846;52.970;-3.168;2022-09-21T06:59:46;101612.25;;;13.92;43.43
73566;BME280;61846;52.970;-3.168;2022-09-21T07:02:12;101608.34;;;14.23;42.50
73566;BME280;61846;52.970;-3.168;2022-09-21T07:04:38;101606.36;;;13.95;42.90
73566;BME280;61846;52.970;-3.168;2022-09-21T07:07:03;101600.36;;;13.49;43.59
73566;BME280;61846;52.970;-3.168;2022-09-21T07:09:29;101594.88;;;13.63;43.60
73566;BME280;61846;52.970;-3.168;2022-09-21T07:11:54;101593.02;;;13.80;43.11
73566;BME280;61846;52.970;-3.168;2022-09-21T07:14:20;101591.72;;;13.47;43.91
73566;BME280;61846;52.970;-3.168;2022-09-21T07:16:45;101584.47;;;13.22;43.92
73566;BME280;61846;52.970;-3.168;2022-09-21T07:19:11;101592.08;;;13.33;44.63
73566;BME280;61846;52.970;-3.168;2022-09-21T07:21:36;101596.73;;;13.94;43.67
73566;BME280;61846;52.970;-3.168;2022-09-21T07:24:02;101595.88;;;13.86;43.98
73566;BME280;61846;52.970;-3.168;2022-09-21T07:26:27;101596.40;;;14.57;43.42
73566;BME280;61846;52.970;-3.168;2022-09-21T07:28:54;101598.09;;;14.25;42.62
73566;BME280;61846;52.970;-3.168;2022-09-21T07:31:18;101597.70;;;14.59;42.69
73566;BME280;61846;52.970;-3.168;2022-09-21T07:33:44;101603.91;;;14.48;42.72
73566;BME280;61846;52.970;-3.168;2022-09-21T07:36:10;101600.20;;;14.21;42.93
73566;BME280;61846;52.970;-3.168;2022-09-21T07:38:35;101601.35;;;14.45;42.68
73566;BME280;61846;52.970;-3.168;2022-09-21T07:41:00;101601.14;;;14.71;42.80
73566;BME280;61846;52.970;-3.168;2022-09-21T07:43:26;101605.18;;;14.50;42.96
73566;BME280;61846;52.970;-3.168;2022-09-21T07:45:52;101604.08;;;14.72;42.77
73566;BME280;61846;52.970;-3.168;2022-09-21T07:48:16;101605.74;;;14.66;42.74
73566;BME280;61846;52.970;-3.168;2022-09-21T07:50:42;101603.31;;;14.36;42.97
73566;BME280;61846;52.970;-3.168;2022-09-21T07:53:07;101604.37;;;14.02;44.55
73566;BME280;61846;52.970;-3.168;2022-09-21T07:55:32;101602.40;;;14.29;43.85
73566;BME280;61846;52.970;-3.168;2022-09-21T07:57:58;101604.54;;;15.14;43.13
73566;BME280;61846;52.970;-3.168;2022-09-21T08:00:23;101604.33;;;14.71;43.19
73566;BME280;61846;52.970;-3.168;2022-09-21T08:02:48;101602.82;;;14.88;43.51
73566;BME280;61846;52.970;-3.168;2022-09-21T08:05:14;101602.44;;;14.49;43.81
73566;BME280;61846;52.970;-3.168;2022-09-21T08:07:39;101602.26;;;14.86;43.77
73566;BME280;61846;52.970;-3.168;2022-09-21T08:10:06;101598.97;;;14.54;43.56
73566;BME280;61846;52.970;-3.168;2022-09-21T08:12:30;101599.01;;;14.87;43.95
73566;BME280;61846;52.970;-3.168;2022-09-21T08:14:56;101595.74;;;15.02;42.80
73566;BME280;61846;52.970;-3.168;2022-09-21T08:17:21;101592.70;;;15.14;43.28
73566;BME280;61846;52.970;-3.168;2022-09-21T08:22:12;101591.06;;;15.54;43.30
73566;BME280;61846;52.970;-3.168;2022-09-21T08:24:38;101592.01;;;14.95;43.53
73566;BME280;61846;52.970;-3.168;2022-09-21T08:27:04;101589.14;;;15.25;43.24
73566;BME280;61846;52.970;-3.168;2022-09-21T08:29:28;101586.96;;;15.95;42.83
73566;BME280;61846;52.970;-3.168;2022-09-21T08:31:54;101588.37;;;15.61;42.32
73566;BME280;61846;52.970;-3.168;2022-09-21T08:34:20;101584.97;;;16.03;42.61
73566;BME280;61846;52.970;-3.168;2022-09-21T08:36:45;101584.18;;;15.85;43.04
73566;BME280;61846;52.970;-3.168;2022-09-21T08:39:11;101579.36;;;16.07;42.83
73566;BME280;61846;52.970;-3.168;2022-09-21T08:41:46;101577.99;;;16.29;42.33
73566;BME280;61846;52.970;-3.168;2022-09-21T08:44:04;101576.15;;;16.43;42.38
73566;BME280;61846;52.970;-3.168;2022-09-21T08:46:28;101576.65;;;16.69;41.58
73566;BME280;61846;52.970;-3.168;2022-09-21T08:48:55;101574.53;;;16.68;42.01
73566;BME280;61846;52.970;-3.168;2022-09-21T08:51:22;101575.11;;;16.67;41.68
73566;BME280;61846;52.970;-3.168;2022-09-21T08:53:45;101573.32;;;16.40;41.90
73566;BME280;61846;52.970;-3.168;2022-09-21T08:56:10;101575.22;;;16.90;41.19
73566;BME280;61846;52.970;-3.168;2022-09-21T08:58:36;101571.23;;;17.07;41.12
73566;BME280;61846;52.970;-3.168;2022-09-21T09:01:12;101569.01;;;16.94;42.06
73566;BME280;61846;52.970;-3.168;2022-09-21T09:03:34;101567.06;;;17.06;42.50
73566;BME280;61846;52.970;-3.168;2022-09-21T09:05:55;101558.58;;;17.49;40.33
73566;BME280;61846;52.970;-3.168;2022-09-21T09:08:31;101555.27;;;17.50;40.86
73566;BME280;61846;52.970;-3.168;2022-09-21T09:10:46;101553.73;;;17.82;40.76
73566;BME280;61846;52.970;-3.168;2022-09-21T09:13:18;101551.24;;;18.03;40.51
73566;BME280;61846;52.970;-3.168;2022-09-21T09:15:41;101550.60;;;17.95;41.00
73566;BME280;61846;52.970;-3.168;2022-09-21T09:18:03;101546.66;;;18.45;40.26
73566;BME280;61846;52.970;-3.168;2022-09-21T09:20:28;101546.28;;;18.35;38.74
73566;BME280;61846;52.970;-3.168;2022-09-21T09:22:54;101547.13;;;18.07;39.84
73566;BME280;61846;52.970;-3.168;2022-09-21T09:25:18;101547.93;;;18.23;39.36
73566;BME280;61846;52.970;-3.168;2022-09-21T09:27:42;101546.69;;;18.84;39.65
73566;BME280;61846;52.970;-3.168;2022-09-21T09:30:12;101548.04;;;18.79;39.26
73566;BME280;61846;52.970;-3.168;2022-09-21T09:32:34;101549.20;;;18.89;39.79
73566;BME280;61846;52.970;-3.168;2022-09-21T09:35:01;101544.81;;;19.17;38.62
73566;BME280;61846;52.970;-3.168;2022-09-21T09:37:26;101543.05;;;19.40;40.34
73566;BME280;61846;52.970;-3.168;2022-09-21T09:39:52;101541.51;;;19.45;39.03
73566;BME280;61846;52.970;-3.168;2022-09-21T09:42:26;101538.79;;;19.35;39.79
73566;BME280;61846;52.970;-3.168;2022-09-21T09:44:51;101538.41;;;19.04;39.07
73566;BME280;61846;52.970;-3.168;2022-09-21T09:47:08;101537.76;;;19.52;39.17
73566;BME280;61846;52.970;-3.168;2022-09-21T09:49:36;101537.50;;;19.47;37.80
73566;BME280;61846;52.970;-3.168;2022-09-21T09:51:53;101537.03;;;19.77;37.96
73566;BME280;61846;52.970;-3.168;2022-09-21T09:54:25;101533.92;;;20.42;38.49
73566;BME280;61846;52.970;-3.168;2022-09-21T09:56:44;101533.03;;;20.89;36.98
73566;BME280;61846;52.970;-3.168;2022-09-21T09:59:23;101528.41;;;21.48;38.15
73566;BME280;61846;52.970;-3.168;2022-09-21T10:01:38;101526.94;;;21.23;35.49
73566;BME280;61846;52.970;-3.168;2022-09-21T10:04:05;101526.43;;;21.86;35.51
73566;BME280;61846;52.970;-3.168;2022-09-21T10:06:30;101521.33;;;21.57;35.29
73566;BME280;61846;52.970;-3.168;2022-09-21T10:08:50;101522.53;;;22.39;33.27
73566;BME280;61846;52.970;-3.168;2022-09-21T10:11:16;101519.62;;;22.10;32.36
73566;BME280;61846;52.970;-3.168;2022-09-21T10:13:42;101521.46;;;21.65;32.13
73566;BME280;61846;52.970;-3.168;2022-09-21T10:16:12;101524.23;;;21.23;31.91
73566;BME280;61846;52.970;-3.168;2022-09-21T10:18:36;101526.34;;;22.20;30.90
73566;BME280;61846;52.970;-3.168;2022-09-21T10:21:00;101522.24;;;22.74;31.71
73566;BME280;61846;52.970;-3.168;2022-09-21T10:23:24;101519.11;;;23.12;31.27
73566;BME280;61846;52.970;-3.168;2022-09-21T10:25:54;101521.54;;;23.40;31.72
73566;BME280;61846;52.970;-3.168;2022-09-21T10:28:21;101514.75;;;22.88;30.87
73566;BME280;61846;52.970;-3.168;2022-09-21T10:30:39;101517.51;;;21.48;31.03
73566;BME280;61846;52.970;-3.168;2022-09-21T10:33:17;101523.03;;;21.51;31.31
73566;BME280;61846;52.970;-3.168;2022-09-21T10:35:29;101520.80;;;21.99;31.19
73566;BME280;61846;52.970;-3.168;2022-09-21T10:38:08;101517.51;;;22.60;31.33
73566;BME280;61846;52.970;-3.168;2022-09-21T10:40:24;101520.42;;;22.46;31.12
73566;BME280;61846;52.970;-3.168;2022-09-21T10:42:47;101522.22;;;22.51;32.61
73566;BME280;61846;52.970;-3.168;2022-09-21T10:45:14;101521.04;;;22.75;32.20
73566;BME280;61846;52.970;-3.168;2022-09-21T10:47:39;101521.66;;;23.37;31.28
73566;BME280;61846;52.970;-3.168;2022-09-21T10:50:05;101515.24;;;22.45;31.44
73566;BME280;61846;52.970;-3.168;2022-09-21T10:52:33;101510.29;;;22.12;32.46
73566;BME280;61846;52.970;-3.168;2022-09-21T10:54:54;101509.23;;;23.02;32.60
73566;BME280;61846;52.970;-3.168;2022-09-21T10:57:19;101499.46;;;23.37;31.74
73566;BME280;61846;52.970;-3.168;2022-09-21T10:59:43;101500.04;;;23.19;31.71
73566;BME280;61846;52.970;-3.168;2022-09-21T11:04:39;101493.53;;;21.34;33.05
73566;BME280;61846;52.970;-3.168;2022-09-21T11:07:04;101494.96;;;21.84;32.90
73566;BME280;61846;52.970;-3.168;2022-09-21T11:09:28;101496.56;;;22.95;31.97
73566;BME280;61846;52.970;-3.168;2022-09-21T11:11:52;101492.48;;;23.24;32.42
73566;BME280;61846;52.970;-3.168;2022-09-21T11:14:29;101494.05;;;22.79;32.13
73566;BME280;61846;52.970;-3.168;2022-09-21T11:16:45;101493.52;;;23.20;32.17
73566;BME280;61846;52.970;-3.168;2022-09-21T11:19:12;101491.29;;;22.35;32.04
73566;BME280;61846;52.970;-3.168;2022-09-21T11:21:43;101488.79;;;22.27;32.28
73566;BME280;61846;52.970;-3.168;2022-09-21T11:24:03;101490.53;;;22.50;32.66
73566;BME280;61846;52.970;-3.168;2022-09-21T11:26:24;101485.76;;;22.96;32.48
73566;BME280;61846;52.970;-3.168;2022-09-21T11:28:51;101483.70;;;22.81;32.24
73566;BME280;61846;52.970;-3.168;2022-09-21T11:33:50;101482.14;;;22.82;32.76
73566;BME280;61846;52.970;-3.168;2022-09-21T11:36:10;101481.60;;;22.21;33.92
73566;BME280;61846;52.970;-3.168;2022-09-21T11:38:38;101481.27;;;22.93;33.14
73566;BME280;61846;52.970;-3.168;2022-09-21T12:09:45;101469.09;;;15.69;48.88
73566;BME280;61846;52.970;-3.168;2022-09-21T12:11:57;101456.48;;;18.81;42.18
73566;BME280;61846;52.970;-3.168;2022-09-21T12:14:27;101458.01;;;19.48;39.37
73566;BME280;61846;52.970;-3.168;2022-09-21T12:16:48;101446.73;;;20.78;37.55
73566;BME280;61846;52.970;-3.168;2022-09-21T12:19:14;101442.51;;;21.33;36.74
73566;BME280;61846;52.970;-3.168;2022-09-21T12:21:35;101442.53;;;22.19;34.37
73566;BME280;61846;52.970;-3.168;2022-09-21T12:24:02;101444.47;;;22.15;34.21
73566;BME280;61846;52.970;-3.168;2022-09-21T12:26:26;101437.60;;;20.48;35.31
73566;BME280;61846;52.970;-3.168;2022-09-21T12:28:51;101438.33;;;21.57;34.36
73566;BME280;61846;52.970;-3.168;2022-09-21T12:31:18;101438.58;;;23.09;32.85
73566;BME280;61846;52.970;-3.168;2022-09-21T12:33:43;101435.00;;;23.11;32.88
73566;BME280;61846;52.970;-3.168;2022-09-21T12:36:09;101433.53;;;22.12;32.35
73566;BME280;61846;52.970;-3.168;2022-09-21T12:38:33;101432.24;;;22.04;32.13
73566;BME280;61846;52.970;-3.168;2022-09-21T12:41:02;101429.22;;;22.48;31.61
73566;BME280;61846;52.970;-3.168;2022-09-21T12:43:28;101427.04;;;23.13;31.03
73566;BME280;61846;52.970;-3.168;2022-09-21T12:45:50;101426.31;;;22.07;32.19
73566;BME280;61846;52.970;-3.168;2022-09-21T12:48:19;101430.82;;;22.52;31.79
73566;BME280;61846;52.970;-3.168;2022-09-21T12:50:39;101429.47;;;21.69;32.90
73566;BME280;61846;52.970;-3.168;2022-09-21T12:53:02;101430.58;;;22.06;32.89
73566;BME280;61846;52.970;-3.168;2022-09-21T12:55:36;101428.04;;;22.70;32.59
73566;BME280;61846;52.970;-3.168;2022-09-21T12:57:57;101424.37;;;22.67;32.44
73566;BME280;61846;52.970;-3.168;2022-09-21T13:00:20;101421.23;;;22.97;31.60
73566;BME280;61846;52.970;-3.168;2022-09-21T13:02:49;101419.96;;;23.28;31.35
73566;BME280;61846;52.970;-3.168;2022-09-21T13:05:14;101417.60;;;21.31;32.90
73566;BME280;61846;52.970;-3.168;2022-09-21T13:07:47;101418.86;;;23.04;31.31
73566;BME280;61846;52.970;-3.168;2022-09-21T13:09:59;101417.48;;;22.34;31.68